Time;durP1;ratioP1;P1;durP2;ratioP2;P2;SDS_P1;SDS_P2;PMS_P1;PMS_P2;Temp;Humidity;BMP_temperature;BMP_pressure;BME280_temperature;BME280_humidity;BME280_pressure;Samples;Min_cycle;Max_cycle;Signal;HPM_P1;HPM_P2
2023/08/07 00:00:32;;;;;;;5.07;1.40;;;11.80;99.90;;;;;;5035422;28;20229;-75
2023/08/07 00:03:00;;;;;;;1.83;1.30;;;11.70;99.90;;;;;;5034784;28;20213;-77
2023/08/07 00:05:28;;;;;;;4.23;1.20;;;11.80;99.90;;;;;;5035333;28;20730;-78
2023/08/07 00:07:56;;;;;;;2.07;1.07;;;11.70;99.90;;;;;;5034835;28;20282;-79
2023/08/07 00:10:24;;;;;;;1.60;1.00;;;11.80;99.90;;;;;;5037047;28;20337;-79
2023/08/07 00:12:52;;;;;;;3.27;1.20;;;11.80;99.90;;;;;;5054841;28;20254;-77
2023/08/07 00:15:21;;;;;;;1.93;1.27;;;11.70;99.90;;;;;;5055167;28;20212;-78
2023/08/07 00:17:50;;;;;;;1.53;1.10;;;11.70;99.90;;;;;;5055110;28;20239;-78
2023/08/07 00:20:18;;;;;;;2.30;1.00;;;11.70;99.90;;;;;;5036559;28;20236;-80
2023/08/07 00:22:46;;;;;;;1.40;0.93;;;11.70;99.90;;;;;;5034579;28;20284;-78
2023/08/07 00:25:14;;;;;;;1.67;1.20;;;11.60;99.90;;;;;;5034596;28;20270;-79
2023/08/07 00:27:42;;;;;;;2.00;1.20;;;11.50;99.90;;;;;;5034729;28;20212;-78
2023/08/07 00:30:12;;;;;;;2.07;1.10;;;11.50;99.90;;;;;;5034250;28;20231;-78
2023/08/07 00:32:40;;;;;;;7.53;1.30;;;11.40;99.90;;;;;;5034301;28;20667;-78
2023/08/07 00:35:10;;;;;;;3.47;1.40;;;11.30;99.90;;;;;;5034570;28;20201;-75
2023/08/07 00:37:38;;;;;;;3.63;1.20;;;11.30;99.90;;;;;;5037063;28;20208;-79
2023/08/07 00:40:07;;;;;;;2.53;1.00;;;11.20;99.90;;;;;;5034196;28;20216;-76
2023/08/07 00:42:35;;;;;;;4.23;1.23;;;11.10;99.90;;;;;;5034033;28;20259;-76
2023/08/07 00:45:04;;;;;;;1.63;1.17;;;11.10;99.90;;;;;;5034088;28;20275;-80
2023/08/07 00:47:33;;;;;;;2.20;1.43;;;11.00;99.90;;;;;;5035771;28;20216;-77
2023/08/07 00:50:04;;;;;;;5.03;1.60;;;10.90;99.90;;;;;;5053980;28;20242;-79
2023/08/07 00:52:34;;;;;;;2.90;1.30;;;10.80;99.90;;;;;;5053685;28;20692;-76
2023/08/07 00:55:03;;;;;;;2.50;1.40;;;10.80;99.90;;;;;;5039673;28;20217;-78
2023/08/07 00:57:31;;;;;;;2.53;1.20;;;10.70;99.90;;;;;;5034155;28;20271;-77
2023/08/07 01:00:00;;;;;;;1.20;1.10;;;10.70;99.90;;;;;;5034008;28;20251;-77
2023/08/07 01:02:29;;;;;;;1.67;1.37;;;10.60;99.90;;;;;;5032215;28;20224;-78
2023/08/07 01:04:57;;;;;;;2.80;1.53;;;10.60;99.90;;;;;;5053786;28;20243;-79
2023/08/07 01:07:25;;;;;;;2.73;1.33;;;10.50;99.90;;;;;;5053665;28;20241;-79
2023/08/07 01:09:57;;;;;;;2.37;1.60;;;10.40;99.90;;;;;;5053740;28;20666;-78
2023/08/07 01:12:30;;;;;;;2.23;1.60;;;10.40;99.90;;;;;;5051821;28;20674;-77
2023/08/07 01:15:05;;;;;;;3.13;1.60;;;10.30;99.90;;;;;;5033604;28;20235;-79
2023/08/07 01:17:34;;;;;;;2.93;1.40;;;10.30;99.90;;;;;;5033939;28;20261;-78
2023/08/07 01:20:04;;;;;;;3.77;1.40;;;10.30;99.90;;;;;;5033798;28;20295;-79
2023/08/07 01:22:33;;;;;;;4.50;2.00;;;10.20;99.90;;;;;;5032856;28;20233;-78
2023/08/07 01:25:02;;;;;;;2.43;1.57;;;10.20;99.90;;;;;;5033720;28;20262;-77
2023/08/07 01:27:37;;;;;;;2.73;1.70;;;10.20;99.90;;;;;;5033447;28;20220;-79
2023/08/07 01:30:12;;;;;;;4.03;1.90;;;10.20;99.90;;;;;;5033249;28;20282;-78
2023/08/07 01:32:48;;;;;;;2.63;2.10;;;10.20;99.90;;;;;;5033371;28;20195;-77
2023/08/07 01:35:19;;;;;;;3.80;1.80;;;10.10;99.90;;;;;;5033344;28;20748;-80
2023/08/07 01:37:51;;;;;;;2.70;1.90;;;10.10;99.90;;;;;;5033838;28;20209;-77
2023/08/07 01:40:20;;;;;;;2.60;1.70;;;10.10;99.90;;;;;;5032753;28;20660;-77
2023/08/07 01:42:49;;;;;;;2.13;1.67;;;10.10;99.90;;;;;;5032753;28;20234;-78
2023/08/07 01:45:23;;;;;;;2.80;1.60;;;10.10;99.90;;;;;;5033037;28;20209;-76
2023/08/07 01:47:52;;;;;;;2.70;1.80;;;10.10;99.90;;;;;;5034390;28;20236;-79
2023/08/07 01:50:20;;;;;;;2.80;1.87;;;10.10;99.90;;;;;;5033337;28;20287;-78
2023/08/07 01:52:51;;;;;;;2.43;1.53;;;10.10;99.90;;;;;;5032975;28;20221;-78
2023/08/07 01:55:20;;;;;;;4.63;1.80;;;10.00;99.90;;;;;;5033004;28;20255;-76
2023/08/07 01:57:48;;;;;;;3.27;1.60;;;10.00;99.90;;;;;;5033062;28;20201;-75
2023/08/07 02:00:16;;;;;;;2.47;1.67;;;10.00;99.90;;;;;;5033175;28;20270;-77
2023/08/07 02:02:46;;;;;;;3.03;1.60;;;10.00;99.90;;;;;;5034056;28;20233;-75
2023/08/07 02:05:15;;;;;;;3.40;1.70;;;10.00;99.90;;;;;;5048423;28;20205;-76
2023/08/07 02:07:44;;;;;;;2.40;1.73;;;10.00;99.90;;;;;;5032632;28;20670;-77
2023/08/07 02:10:13;;;;;;;3.07;1.70;;;10.00;99.90;;;;;;5032795;28;20213;-76
2023/08/07 02:12:41;;;;;;;9.23;2.07;;;10.00;99.90;;;;;;5032045;28;20204;-75
2023/08/07 02:15:10;;;;;;;2.87;1.80;;;10.00;99.90;;;;;;5032713;28;20228;-76
2023/08/07 02:17:40;;;;;;;2.70;1.70;;;9.90;99.90;;;;;;5032486;28;20659;-74
2023/08/07 02:20:11;;;;;;;3.10;1.77;;;9.90;99.90;;;;;;5032520;28;20213;-75
2023/08/07 02:22:39;;;;;;;3.37;1.80;;;9.90;99.90;;;;;;5032293;28;20256;-75
2023/08/07 02:25:08;;;;;;;2.27;1.70;;;10.00;99.90;;;;;;5032695;28;20215;-79
2023/08/07 02:27:37;;;;;;;2.50;1.47;;;10.00;99.90;;;;;;5032928;28;20255;-79
2023/08/07 02:30:07;;;;;;;2.53;1.50;;;9.90;99.90;;;;;;5032462;28;20209;-80
2023/08/07 02:32:35;;;;;;;1.83;1.70;;;9.90;99.90;;;;;;5038167;28;20208;-78
2023/08/07 02:35:03;;;;;;;2.33;1.70;;;9.90;99.90;;;;;;5052541;28;20208;-79
2023/08/07 02:37:31;;;;;;;2.10;1.60;;;9.90;99.90;;;;;;5052572;28;20303;-78
2023/08/07 02:40:00;;;;;;;2.60;1.70;;;9.90;99.90;;;;;;5052121;28;20231;-77
2023/08/07 02:42:28;;;;;;;3.17;1.77;;;9.90;99.90;;;;;;5038599;28;20229;-76
2023/08/07 02:44:57;;;;;;;3.30;1.83;;;9.90;99.90;;;;;;5035208;28;20212;-79
2023/08/07 02:47:25;;;;;;;3.17;1.87;;;9.90;99.90;;;;;;5051648;28;20204;-78
2023/08/07 02:49:53;;;;;;;2.90;1.90;;;9.90;99.90;;;;;;5052482;28;20560;-79
2023/08/07 02:52:21;;;;;;;7.87;1.90;;;9.80;99.90;;;;;;5050684;28;20250;-76
2023/08/07 02:54:50;;;;;;;3.70;1.80;;;9.80;99.90;;;;;;5051937;28;20214;-78
2023/08/07 02:57:18;;;;;;;3.33;1.80;;;9.90;99.90;;;;;;5052235;28;20208;-76
2023/08/07 02:59:46;;;;;;;3.00;2.00;;;9.80;99.90;;;;;;5051027;28;20228;-77
2023/08/07 03:02:15;;;;;;;2.70;1.70;;;9.80;99.90;;;;;;5052760;28;20542;-76
2023/08/07 03:04:43;;;;;;;4.40;2.10;;;9.80;99.90;;;;;;5052248;28;20719;-79
2023/08/07 03:07:12;;;;;;;3.37;1.97;;;9.80;99.90;;;;;;5051778;28;20325;-79
2023/08/07 03:09:40;;;;;;;3.00;1.53;;;9.80;99.90;;;;;;5034050;28;20603;-75
2023/08/07 03:12:09;;;;;;;4.50;1.93;;;9.70;99.90;;;;;;5042623;28;20203;-73
2023/08/07 03:14:37;;;;;;;2.73;1.90;;;9.70;99.90;;;;;;5051809;28;20678;-74
2023/08/07 03:17:05;;;;;;;4.10;1.90;;;9.70;99.90;;;;;;5045324;28;20266;-78
2023/08/07 03:19:35;;;;;;;4.27;2.00;;;9.80;99.90;;;;;;5051520;28;20558;-77
2023/08/07 03:22:04;;;;;;;5.30;2.00;;;9.80;99.90;;;;;;5051316;28;20728;-76
2023/08/07 03:24:32;;;;;;;5.83;2.10;;;9.70;99.90;;;;;;5051151;28;20209;-78
2023/08/07 03:27:01;;;;;;;5.03;1.90;;;9.70;99.90;;;;;;5056301;28;20226;-75
2023/08/07 03:29:29;;;;;;;3.70;1.90;;;9.80;99.90;;;;;;5055824;28;20640;-77
2023/08/07 03:31:57;;;;;;;3.63;1.83;;;9.80;99.90;;;;;;5055543;28;20204;-76
2023/08/07 03:34:25;;;;;;;2.73;1.90;;;9.80;99.90;;;;;;5048035;28;20658;-75
2023/08/07 03:36:55;;;;;;;3.10;1.70;;;9.80;99.90;;;;;;5035805;28;20225;-77
2023/08/07 03:39:24;;;;;;;2.60;1.90;;;9.70;99.90;;;;;;5036072;28;20224;-75
2023/08/07 03:41:52;;;;;;;4.47;2.10;;;9.70;99.90;;;;;;5041371;28;20227;-77
2023/08/07 03:44:21;;;;;;;3.00;2.00;;;9.70;99.90;;;;;;5051767;28;20204;-79
2023/08/07 03:46:50;;;;;;;3.90;2.00;;;9.80;99.90;;;;;;5055469;28;20204;-78
2023/08/07 03:49:19;;;;;;;3.90;1.90;;;9.80;99.90;;;;;;5054662;28;20594;-78
2023/08/07 03:51:47;;;;;;;4.77;1.83;;;9.80;99.90;;;;;;5055043;28;20515;-75
2023/08/07 03:54:16;;;;;;;5.47;2.00;;;9.70;99.90;;;;;;5044229;28;20217;-75
2023/08/07 03:56:46;;;;;;;2.87;2.03;;;9.80;99.90;;;;;;5035459;28;20202;-74
2023/08/07 03:59:14;;;;;;;3.83;1.73;;;9.80;99.90;;;;;;5035585;28;20256;-77
2023/08/07 04:01:42;;;;;;;3.73;1.90;;;9.80;99.90;;;;;;5035519;28;20720;-76
2023/08/07 04:04:10;;;;;;;4.27;2.10;;;9.80;99.90;;;;;;5035070;28;20552;-77
2023/08/07 04:06:38;;;;;;;3.60;1.90;;;9.80;99.90;;;;;;5035333;28;20221;-78
2023/08/07 04:09:10;;;;;;;2.77;1.90;;;9.70;99.90;;;;;;5035116;28;20717;-78
2023/08/07 04:11:41;;;;;;;5.47;2.50;;;9.80;99.90;;;;;;5034904;28;20243;-79
2023/08/07 04:14:09;;;;;;;3.83;2.00;;;9.70;99.90;;;;;;5035264;28;20255;-78
2023/08/07 04:16:37;;;;;;;4.20;2.40;;;9.80;99.90;;;;;;5035379;28;20208;-76
2023/08/07 04:19:06;;;;;;;3.70;2.13;;;9.70;99.90;;;;;;5034975;28;20205;-79
2023/08/07 04:21:34;;;;;;;4.23;2.10;;;9.70;99.90;;;;;;5034314;28;20721;-79
2023/08/07 04:24:07;;;;;;;4.70;2.00;;;9.80;99.90;;;;;;5034358;28;20287;-79
2023/08/07 04:26:36;;;;;;;3.23;2.07;;;9.80;99.90;;;;;;5034771;28;20701;-77
2023/08/07 04:29:07;;;;;;;2.83;2.00;;;9.80;99.90;;;;;;5034590;28;20209;-78
2023/08/07 04:31:35;;;;;;;4.10;2.20;;;9.80;99.90;;;;;;5034247;28;20263;-79
2023/08/07 04:34:03;;;;;;;3.57;2.20;;;9.80;99.90;;;;;;5034537;28;20248;-81
2023/08/07 04:36:31;;;;;;;3.70;2.00;;;9.80;99.90;;;;;;5051276;28;20573;-78
2023/08/07 04:38:59;;;;;;;3.30;2.17;;;9.80;99.90;;;;;;5054509;28;20208;-79
2023/08/07 04:41:28;;;;;;;4.93;1.80;;;9.80;99.90;;;;;;5054278;28;20254;-78
2023/08/07 04:43:56;;;;;;;3.97;2.10;;;9.80;99.90;;;;;;5050688;28;20260;-80
2023/08/07 04:46:25;;;;;;;3.10;1.90;;;9.80;99.90;;;;;;5053968;28;20224;-76
2023/08/07 04:48:54;;;;;;;2.17;1.70;;;9.80;99.90;;;;;;5054165;28;20254;-78
2023/08/07 04:51:22;;;;;;;1.83;1.70;;;9.80;99.90;;;;;;5036635;28;20217;-79
2023/08/07 04:53:51;;;;;;;2.87;1.87;;;9.80;99.90;;;;;;5050824;28;20294;-78
2023/08/07 04:56:44;;;;;;;3.60;2.10;;;9.80;99.90;;;;;;5054000;28;20334;-78
2023/08/07 04:59:17;;;;;;;4.33;2.00;;;9.80;99.90;;;;;;5053571;28;20211;-76
2023/08/07 05:01:46;;;;;;;3.40;2.00;;;9.80;99.90;;;;;;5035196;28;20236;-78
2023/08/07 05:04:14;;;;;;;4.27;2.03;;;9.80;99.90;;;;;;5034061;28;20237;-78
2023/08/07 05:06:43;;;;;;;6.17;2.20;;;9.80;99.90;;;;;;5034208;28;20212;-78
2023/08/07 05:09:11;;;;;;;2.73;1.80;;;9.80;99.90;;;;;;5034195;28;20213;-79
2023/08/07 05:11:39;;;;;;;3.47;2.13;;;9.80;99.90;;;;;;5034039;28;20209;-77
2023/08/07 05:14:07;;;;;;;3.30;2.20;;;9.80;99.90;;;;;;5034135;28;20205;-79
2023/08/07 05:16:35;;;;;;;3.20;1.93;;;9.80;99.90;;;;;;5033599;28;20220;-80
2023/08/07 05:19:04;;;;;;;3.20;2.03;;;9.80;99.90;;;;;;5034249;28;20629;-79
2023/08/07 05:21:33;;;;;;;3.33;1.93;;;9.80;99.90;;;;;;5033769;28;20208;-77
2023/08/07 05:24:01;;;;;;;3.47;2.10;;;9.80;99.90;;;;;;5049129;28;20224;-79
2023/08/07 05:26:31;;;;;;;4.10;2.00;;;9.80;99.90;;;;;;5039101;28;20268;-77
2023/08/07 05:28:59;;;;;;;2.57;1.97;;;9.90;99.90;;;;;;5033469;28;20209;-78
2023/08/07 05:31:27;;;;;;;3.07;1.77;;;9.90;99.90;;;;;;5033495;28;20296;-76
2023/08/07 05:33:56;;;;;;;3.90;2.10;;;9.90;99.90;;;;;;5033450;28;20239;-79
2023/08/07 05:36:26;;;;;;;2.87;2.00;;;9.90;99.90;;;;;;5033592;28;20220;-76
2023/08/07 05:38:54;;;;;;;3.37;1.90;;;10.00;99.90;;;;;;5033557;28;20212;-77
2023/08/07 05:41:23;;;;;;;2.87;1.80;;;10.00;99.90;;;;;;5042192;28;20289;-77
2023/08/07 05:43:51;;;;;;;4.37;2.00;;;10.00;99.90;;;;;;5053377;28;20240;-76
2023/08/07 05:46:19;;;;;;;4.10;2.20;;;10.00;99.90;;;;;;5052947;28;20208;-79
2023/08/07 05:48:47;;;;;;;2.30;1.70;;;10.10;99.90;;;;;;5049389;28;20219;-77
2023/08/07 05:51:15;;;;;;;2.70;1.73;;;10.10;99.90;;;;;;5045963;28;20258;-79
2023/08/07 05:53:45;;;;;;;3.60;1.93;;;10.10;99.90;;;;;;5051165;28;20281;-75
2023/08/07 05:56:13;;;;;;;4.93;2.30;;;10.20;99.90;;;;;;5053667;28;20209;-77
2023/08/07 05:58:41;;;;;;;3.73;2.13;;;10.20;99.90;;;;;;5052797;28;20220;-79
2023/08/07 06:01:09;;;;;;;4.33;1.90;;;10.30;99.90;;;;;;5053175;28;20219;-75
2023/08/07 06:03:38;;;;;;;3.57;1.97;;;10.40;99.90;;;;;;5050787;28;20258;-76
2023/08/07 06:06:06;;;;;;;3.83;1.73;;;10.50;99.90;;;;;;5052970;28;20281;-76
2023/08/07 06:08:35;;;;;;;5.30;2.20;;;10.50;99.90;;;;;;5038761;28;20224;-79
2023/08/07 06:11:07;;;;;;;6.00;2.00;;;10.60;99.90;;;;;;5032637;28;20571;-77
2023/08/07 06:13:36;;;;;;;3.53;2.00;;;10.70;99.90;;;;;;5046061;28;20219;-73
2023/08/07 06:16:05;;;;;;;3.27;1.77;;;10.70;99.90;;;;;;5071948;28;20207;-76
2023/08/07 06:18:34;;;;;;;9.90;2.00;;;10.80;99.90;;;;;;5072669;28;20577;-77
2023/08/07 06:21:03;;;;;;;4.90;1.90;;;10.90;99.90;;;;;;5068482;28;20296;-76
2023/08/07 06:23:31;;;;;;;3.83;1.83;;;10.90;99.90;;;;;;5051101;28;20267;-78
2023/08/07 06:26:03;;;;;;;4.10;1.90;;;11.00;99.90;;;;;;5052706;28;20281;-78
2023/08/07 06:28:36;;;;;;;3.97;1.97;;;11.00;99.90;;;;;;5052087;28;20299;-80
2023/08/07 06:31:05;;;;;;;4.60;1.90;;;11.10;99.90;;;;;;5037029;28;20603;-77
2023/08/07 06:33:34;;;;;;;4.23;1.73;;;11.20;99.90;;;;;;5043878;28;20204;-75
2023/08/07 06:36:04;;;;;;;6.13;2.00;;;11.20;99.90;;;;;;5052516;28;20219;-78
2023/08/07 06:38:32;;;;;;;5.80;1.77;;;11.20;99.90;;;;;;5040751;28;20217;-77
2023/08/07 06:41:00;;;;;;;4.70;2.00;;;11.30;99.90;;;;;;5047070;28;20289;-78
2023/08/07 06:43:35;;;;;;;4.03;2.03;;;11.50;99.90;;;;;;5031710;28;20697;-76
2023/08/07 06:46:03;;;;;;;3.70;2.00;;;11.50;99.90;;;;;;5048417;28;20216;-78
2023/08/07 06:48:32;;;;;;;3.20;1.90;;;11.60;99.90;;;;;;5051844;28;20253;-79
2023/08/07 06:51:00;;;;;;;4.30;1.90;;;11.80;99.90;;;;;;5045359;28;20205;-76
2023/08/07 06:53:28;;;;;;;2.87;1.80;;;12.00;99.90;;;;;;5062948;28;20230;-77
2023/08/07 06:55:57;;;;;;;4.07;2.03;;;12.00;99.90;;;;;;5051675;28;20211;-75
2023/08/07 06:58:25;;;;;;;4.30;1.80;;;12.00;99.90;;;;;;5060625;28;20254;-75
2023/08/07 07:00:54;;;;;;;2.40;1.60;;;12.20;99.90;;;;;;5039421;28;20247;-76
2023/08/07 07:03:23;;;;;;;3.07;1.67;;;12.30;99.90;;;;;;5040194;28;20678;-75
2023/08/07 07:05:52;;;;;;;4.60;1.77;;;12.40;99.90;;;;;;5052482;28;20295;-77
2023/08/07 07:08:20;;;;;;;4.23;1.90;;;12.50;99.90;;;;;;5043425;28;20258;-77
2023/08/07 07:10:48;;;;;;;4.27;1.60;;;12.70;99.90;;;;;;5044864;28;20705;-74
2023/08/07 07:13:16;;;;;;;4.23;2.07;;;12.90;99.90;;;;;;5051370;28;20216;-75
2023/08/07 07:15:45;;;;;;;3.37;1.80;;;13.00;99.90;;;;;;5039360;28;20220;-75
2023/08/07 07:18:14;;;;;;;4.30;1.87;;;12.90;99.90;;;;;;5031244;28;20216;-75
2023/08/07 07:20:42;;;;;;;1.60;1.50;;;13.00;99.90;;;;;;5031313;28;20213;-75
2023/08/07 07:23:10;;;;;;;3.37;1.60;;;13.10;99.90;;;;;;5031662;28;20226;-75
2023/08/07 07:25:39;;;;;;;3.97;1.70;;;13.30;99.90;;;;;;5041938;28;20759;-77
2023/08/07 07:28:07;;;;;;;3.87;1.70;;;13.20;99.90;;;;;;5038155;28;20205;-77
2023/08/07 07:30:35;;;;;;;2.60;1.60;;;13.20;99.90;;;;;;5032136;28;20271;-78
2023/08/07 07:33:03;;;;;;;3.90;1.50;;;13.20;99.90;;;;;;5047743;28;20220;-79
2023/08/07 07:35:35;;;;;;;3.67;1.47;;;13.10;99.90;;;;;;5051819;28;20208;-75
2023/08/07 07:38:03;;;;;;;4.33;1.43;;;13.30;99.90;;;;;;5051294;28;20211;-74
2023/08/07 07:40:31;;;;;;;4.30;1.63;;;13.30;99.90;;;;;;5051737;28;20211;-78
2023/08/07 07:42:59;;;;;;;2.17;1.50;;;13.40;99.90;;;;;;5046237;28;20209;-75
2023/08/07 07:45:28;;;;;;;4.17;1.77;;;13.40;99.90;;;;;;5031301;28;20236;-76
2023/08/07 07:47:56;;;;;;;3.23;1.70;;;13.30;99.90;;;;;;5032392;28;20580;-75
2023/08/07 07:50:24;;;;;;;3.97;1.47;;;13.40;99.90;;;;;;5031733;28;20213;-75
2023/08/07 07:52:54;;;;;;;3.03;1.40;;;13.40;99.90;;;;;;5031629;28;20572;-74
2023/08/07 07:55:22;;;;;;;3.47;1.57;;;13.40;99.90;;;;;;5031317;28;20209;-77
2023/08/07 07:57:50;;;;;;;2.47;1.60;;;13.40;99.90;;;;;;5031602;28;20295;-76
2023/08/07 08:00:19;;;;;;;4.87;1.50;;;13.60;99.90;;;;;;5031632;28;20270;-76
2023/08/07 08:02:47;;;;;;;4.73;1.60;;;13.60;99.90;;;;;;5031928;28;20259;-74
2023/08/07 08:05:15;;;;;;;3.43;1.70;;;13.70;99.90;;;;;;5051993;28;20239;-75
2023/08/07 08:07:44;;;;;;;4.33;1.70;;;13.70;99.90;;;;;;5047432;28;20281;-75
2023/08/07 08:10:14;;;;;;;3.37;1.70;;;13.70;99.90;;;;;;5047506;28;20213;-74
2023/08/07 08:12:42;;;;;;;2.83;1.67;;;13.90;99.90;;;;;;5054516;28;20212;-77
2023/08/07 08:15:11;;;;;;;3.67;1.60;;;13.90;99.90;;;;;;5054620;28;20254;-73
2023/08/07 08:17:39;;;;;;;3.33;1.80;;;13.90;99.90;;;;;;5042540;28;20299;-75
2023/08/07 08:20:09;;;;;;;3.63;1.43;;;13.80;99.90;;;;;;5034649;28;20216;-74
2023/08/07 08:22:37;;;;;;;3.20;1.47;;;13.80;99.90;;;;;;5040635;28;20642;-75
2023/08/07 08:25:06;;;;;;;2.53;1.57;;;13.70;99.90;;;;;;5054224;28;20228;-75
2023/08/07 08:27:36;;;;;;;2.10;1.50;;;13.80;99.90;;;;;;5035875;28;20231;-78
2023/08/07 08:30:05;;;;;;;3.63;1.70;;;13.90;99.90;;;;;;5034372;28;20308;-78
2023/08/07 08:32:33;;;;;;;2.80;1.50;;;13.90;99.90;;;;;;5034600;28;20220;-78
2023/08/07 08:35:02;;;;;;;6.50;1.80;;;13.90;99.90;;;;;;5050729;28;20207;-75
2023/08/07 08:37:30;;;;;;;2.20;1.50;;;13.90;99.90;;;;;;5054148;28;20219;-75
2023/08/07 08:39:59;;;;;;;4.77;1.57;;;13.80;99.90;;;;;;5054582;28;20247;-77
2023/08/07 08:42:28;;;;;;;7.57;1.67;;;13.90;99.90;;;;;;5052878;28;20216;-77
2023/08/07 08:44:59;;;;;;;2.23;1.37;;;13.80;99.90;;;;;;5034864;28;20252;-76
2023/08/07 08:47:27;;;;;;;3.47;1.50;;;13.80;99.90;;;;;;5034473;28;20209;-78
2023/08/07 08:50:01;;;;;;;2.90;1.80;;;13.70;99.90;;;;;;5034402;28;20736;-75
2023/08/07 08:52:31;;;;;;;3.60;1.60;;;13.70;99.90;;;;;;5033854;28;20212;-77
2023/08/07 08:55:00;;;;;;;1.70;1.50;;;13.70;99.90;;;;;;5033903;28;20197;-76
2023/08/07 08:57:30;;;;;;;3.40;1.70;;;13.70;99.90;;;;;;5033453;28;20209;-76
2023/08/07 09:00:01;;;;;;;5.73;1.67;;;13.70;99.90;;;;;;5032768;28;20217;-75
2023/08/07 09:02:29;;;;;;;2.20;1.50;;;13.70;99.90;;;;;;5033772;28;20311;-77
2023/08/07 09:04:57;;;;;;;2.67;1.70;;;13.80;99.90;;;;;;5049643;28;20307;-77
2023/08/07 09:07:28;;;;;;;4.67;1.90;;;13.80;99.90;;;;;;5053239;28;20669;-76
2023/08/07 09:09:58;;;;;;;2.10;1.40;;;13.70;99.90;;;;;;5043672;28;20223;-79
2023/08/07 09:12:30;;;;;;;2.97;1.70;;;13.70;99.90;;;;;;5034144;28;20572;-77
2023/08/07 09:15:02;;;;;;;3.70;2.00;;;13.80;99.90;;;;;;5033895;28;20263;-79
2023/08/07 09:17:34;;;;;;;3.63;1.47;;;13.90;99.90;;;;;;5033548;28;20203;-75
2023/08/07 09:20:04;;;;;;;4.53;1.53;;;13.90;99.90;;;;;;5034246;28;20213;-75
2023/08/07 09:22:32;;;;;;;4.47;1.80;;;13.90;99.90;;;;;;5033122;28;20311;-76
2023/08/07 09:25:01;;;;;;;3.17;1.83;;;13.90;99.90;;;;;;5033461;28;20580;-75
2023/08/07 09:27:29;;;;;;;4.80;1.80;;;13.90;99.90;;;;;;5033660;28;20670;-76
2023/08/07 09:29:59;;;;;;;3.40;1.50;;;13.80;99.90;;;;;;5033340;28;20263;-78
2023/08/07 09:32:27;;;;;;;4.33;1.50;;;13.70;99.90;;;;;;5033693;28;20208;-76
2023/08/07 09:34:56;;;;;;;2.50;1.60;;;13.80;99.90;;;;;;5039395;28;20232;-76
2023/08/07 09:37:25;;;;;;;2.70;1.70;;;13.80;99.90;;;;;;5053894;28;20208;-76
2023/08/07 09:39:53;;;;;;;2.90;1.70;;;13.90;99.90;;;;;;5053397;28;20216;-78
2023/08/07 09:42:21;;;;;;;1.77;1.60;;;13.90;99.90;;;;;;5053097;28;20215;-77
2023/08/07 09:44:50;;;;;;;3.30;1.77;;;14.00;99.90;;;;;;5052491;28;20303;-75
2023/08/07 09:47:19;;;;;;;3.40;1.60;;;14.20;99.90;;;;;;5052704;28;20269;-75
2023/08/07 09:49:48;;;;;;;3.07;1.70;;;14.30;99.90;;;;;;5053662;28;20215;-77
2023/08/07 09:52:17;;;;;;;2.97;1.40;;;14.40;99.90;;;;;;5052191;28;20208;-77
2023/08/07 09:54:45;;;;;;;3.03;1.87;;;14.50;99.90;;;;;;5052855;28;20215;-79
2023/08/07 09:57:14;;;;;;;2.10;1.20;;;14.50;99.90;;;;;;5052956;28;20235;-77
2023/08/07 09:59:42;;;;;;;2.43;1.50;;;14.50;99.90;;;;;;5052922;28;20627;-75
2023/08/07 10:02:11;;;;;;;2.27;1.40;;;14.40;99.90;;;;;;5036539;28;20232;-74
2023/08/07 10:04:41;;;;;;;3.40;1.60;;;14.50;99.90;;;;;;5043110;28;20688;-77
2023/08/07 10:07:12;;;;;;;3.90;1.77;;;14.60;99.90;;;;;;5052614;28;20293;-75
2023/08/07 10:09:41;;;;;;;2.03;1.50;;;14.70;99.90;;;;;;5043221;28;20680;-76
2023/08/07 10:12:10;;;;;;;2.10;1.40;;;15.00;99.90;;;;;;5032566;28;20205;-77
2023/08/07 10:14:41;;;;;;;2.43;1.50;;;15.40;99.90;;;;;;5032903;28;20217;-77
2023/08/07 10:17:10;;;;;;;3.10;1.60;;;15.80;99.90;;;;;;5032778;28;20201;-76
2023/08/07 10:19:39;;;;;;;5.33;1.60;;;16.50;99.90;;;;;;5032743;28;20257;-76
2023/08/07 10:22:07;;;;;;;2.23;1.60;;;16.80;99.90;;;;;;5032222;28;20918;-77
2023/08/07 10:24:39;;;;;;;3.47;1.70;;;17.10;99.90;;;;;;5032759;28;20213;-74
2023/08/07 10:27:08;;;;;;;4.57;1.60;;;17.30;99.50;;;;;;5032722;28;20283;-76
2023/08/07 10:29:38;;;;;;;2.77;1.63;;;17.40;99.90;;;;;;5031843;28;20209;-79
2023/08/07 10:32:08;;;;;;;3.07;1.70;;;17.60;99.80;;;;;;5032567;28;20217;-77
2023/08/07 10:34:37;;;;;;;3.47;1.53;;;17.80;98.60;;;;;;5040840;28;20216;-76
2023/08/07 10:37:09;;;;;;;2.60;1.60;;;18.20;98.30;;;;;;5052673;28;20230;-76
2023/08/07 10:39:38;;;;;;;2.67;1.60;;;18.20;95.80;;;;;;5052313;28;20215;-75
2023/08/07 10:42:06;;;;;;;3.93;1.63;;;18.10;95.80;;;;;;5051675;28;20260;-78
2023/08/07 10:44:48;;;;;;;3.23;1.50;;;17.80;96.20;;;;;;5033933;28;20212;-74
2023/08/07 10:47:34;;;;;;;2.87;1.60;;;17.40;94.90;;;;;;5031524;28;20637;-75
2023/08/07 10:50:02;;;;;;;2.07;1.60;;;17.30;96.70;;;;;;5032346;28;20212;-76
2023/08/07 10:52:31;;;;;;;3.97;1.43;;;16.90;98.00;;;;;;5033002;28;20728;-76
2023/08/07 10:55:00;;;;;;;2.53;1.40;;;16.70;98.20;;;;;;5036311;28;20213;-76
2023/08/07 10:57:33;;;;;;;2.90;1.40;;;16.60;98.90;;;;;;5045968;28;20574;-74
2023/08/07 11:00:05;;;;;;;3.13;1.50;;;16.50;98.70;;;;;;5052270;28;20208;-74
2023/08/07 11:02:33;;;;;;;2.40;1.43;;;16.50;98.40;;;;;;5042958;28;20229;-75
2023/08/07 11:05:02;;;;;;;4.97;1.80;;;16.50;98.50;;;;;;5042717;28;20216;-75
2023/08/07 11:07:32;;;;;;;2.90;1.53;;;16.70;97.90;;;;;;5052248;28;20293;-77
2023/08/07 11:10:00;;;;;;;2.40;2.10;;;17.70;99.90;;;;;;5051863;28;20208;-77
2023/08/07 11:12:30;;;;;;;4.87;2.87;;;18.30;98.80;;;;;;5033252;28;20216;-76
2023/08/07 11:14:58;;;;;;;2.17;1.70;;;18.50;99.10;;;;;;5031562;28;20683;-79
2023/08/07 11:17:27;;;;;;;3.03;1.80;;;18.70;96.90;;;;;;5031858;28;20208;-77
2023/08/07 11:19:56;;;;;;;2.17;1.77;;;18.40;96.60;;;;;;5032480;28;20224;-77
2023/08/07 11:22:24;;;;;;;3.17;2.40;;;18.40;95.60;;;;;;5030849;28;20555;-77
2023/08/07 11:24:54;;;;;;;4.80;1.80;;;18.30;95.00;;;;;;5032190;28;20205;-76
2023/08/07 11:27:23;;;;;;;3.97;2.10;;;18.20;94.40;;;;;;5031862;28;20232;-76
2023/08/07 11:29:51;;;;;;;3.17;1.90;;;18.30;92.90;;;;;;5031311;28;20232;-76
2023/08/07 11:32:21;;;;;;;1.80;1.60;;;18.20;95.80;;;;;;5035552;28;20211;-75
2023/08/07 11:34:50;;;;;;;3.53;1.60;;;18.40;93.90;;;;;;5051131;28;20200;-77
2023/08/07 11:37:19;;;;;;;1.87;1.50;;;18.30;96.50;;;;;;5040471;28;20663;-75
2023/08/07 11:39:47;;;;;;;2.77;1.40;;;18.40;96.00;;;;;;5031332;28;20208;-75
2023/08/07 11:42:16;;;;;;;1.97;1.50;;;18.40;96.20;;;;;;5031919;28;20679;-75
2023/08/07 11:44:45;;;;;;;1.67;1.53;;;18.30;96.10;;;;;;5031791;28;20205;-74
2023/08/07 11:47:14;;;;;;;2.30;1.40;;;17.80;96.10;;;;;;5035666;28;20283;-75
2023/08/07 11:49:42;;;;;;;1.70;1.60;;;17.40;97.50;;;;;;5035889;28;20343;-74
2023/08/07 11:52:11;;;;;;;3.03;1.60;;;17.20;98.20;;;;;;5046288;28;20204;-77
2023/08/07 11:54:39;;;;;;;3.00;1.77;;;17.00;98.00;;;;;;5048959;28;20278;-77
2023/08/07 11:57:18;;;;;;;3.23;1.80;;;16.90;98.30;;;;;;5055178;28;20250;-76
2023/08/07 11:59:51;;;;;;;3.47;1.70;;;17.00;98.30;;;;;;5056061;28;20566;-76
2023/08/07 12:02:24;;;;;;;3.63;1.60;;;17.30;99.70;;;;;;5055218;28;20228;-76
2023/08/07 12:04:58;;;;;;;2.23;1.70;;;17.50;99.30;;;;;;5044163;28;20208;-74
2023/08/07 12:07:28;;;;;;;7.67;2.00;;;17.30;97.20;;;;;;5055473;28;20235;-74
2023/08/07 12:10:02;;;;;;;5.87;1.87;;;17.70;97.60;;;;;;5055633;28;20287;-74
2023/08/07 12:12:36;;;;;;;8.97;2.00;;;18.10;97.00;;;;;;5038560;28;20205;-75
2023/08/07 12:15:07;;;;;;;2.90;1.70;;;18.30;94.20;;;;;;5035370;28;20207;-74
2023/08/07 12:17:36;;;;;;;2.10;1.57;;;18.20;95.10;;;;;;5036071;28;20212;-76
2023/08/07 12:20:10;;;;;;;1.40;1.30;;;18.10;95.30;;;;;;5036413;28;20209;-78
2023/08/07 12:22:38;;;;;;;1.60;1.43;;;18.20;94.40;;;;;;5055531;28;20215;-77
2023/08/07 12:25:08;;;;;;;2.23;1.50;;;18.10;95.80;;;;;;5055303;28;20269;-78
2023/08/07 12:27:37;;;;;;;3.70;1.50;;;18.30;96.30;;;;;;5054709;28;20639;-78
2023/08/07 12:30:07;;;;;;;1.53;1.37;;;18.30;94.60;;;;;;5041725;28;20208;-78
2023/08/07 12:32:35;;;;;;;2.13;1.50;;;18.20;94.60;;;;;;5052247;28;20212;-76
2023/08/07 12:35:07;;;;;;;2.10;1.20;;;18.30;93.50;;;;;;5052974;28;20239;-76
2023/08/07 12:37:38;;;;;;;3.90;1.53;;;18.20;94.10;;;;;;5046492;28;20203;-78
2023/08/07 12:40:08;;;;;;;2.57;1.57;;;18.20;94.70;;;;;;5043503;28;20212;-76
2023/08/07 12:42:40;;;;;;;2.17;1.37;;;18.20;94.00;;;;;;5053266;28;20212;-77
2023/08/07 12:45:09;;;;;;;2.70;1.50;;;18.30;95.40;;;;;;5052605;28;20224;-76
2023/08/07 12:47:37;;;;;;;2.83;1.60;;;18.40;94.00;;;;;;5046340;28;20225;-75
2023/08/07 12:50:06;;;;;;;1.50;1.40;;;18.40;92.60;;;;;;5032724;28;20223;-76
2023/08/07 12:52:34;;;;;;;1.60;1.50;;;18.40;92.70;;;;;;5046449;28;20208;-77
2023/08/07 12:55:02;;;;;;;3.10;1.50;;;18.40;92.20;;;;;;5054955;28;20212;-78
2023/08/07 12:57:31;;;;;;;2.00;1.50;;;18.30;91.30;;;;;;5041801;28;20209;-77
2023/08/07 13:00:00;;;;;;;4.67;1.80;;;18.20;91.80;;;;;;5035210;28;20213;-77